createdAt,value
2023-04-13T00:00:54.274Z,78.30
2023-04-13T00:03:43.884Z,78.20
2023-04-13T00:06:20.929Z,78.10
2023-04-13T00:08:53.376Z,78.20
2023-04-13T00:11:24.232Z,78.10
2023-04-13T00:13:55.789Z,78.10
2023-04-13T00:16:27.236Z,78.00
2023-04-13T00:19:04.620Z,77.90
2023-04-13T00:21:41.842Z,77.90
2023-04-13T00:24:17.072Z,77.80
2023-04-13T00:26:48.706Z,77.90
2023-04-13T00:29:29.359Z,77.90
2023-04-13T00:31:57.944Z,77.90
2023-04-13T00:34:43.602Z,77.80
2023-04-13T00:37:16.601Z,77.80
2023-04-13T00:39:48.074Z,77.70
2023-04-13T00:42:19.363Z,77.70
2023-04-13T00:44:52.007Z,77.60
2023-04-13T00:47:33.099Z,77.60
2023-04-13T00:50:11.541Z,77.50
2023-04-13T00:52:49.244Z,77.40
2023-04-13T00:55:21.271Z,77.30
2023-04-13T00:57:58.523Z,77.30
2023-04-13T01:00:31.711Z,77.20
2023-04-13T01:03:05.293Z,77.10
2023-04-13T01:05:53.708Z,76.90
2023-04-13T01:08:37.688Z,76.90
2023-04-13T01:11:21.178Z,76.90
2023-04-13T01:14:02.673Z,76.90
2023-04-13T01:16:53.181Z,76.90
2023-04-13T01:19:32.270Z,76.90
2023-04-13T01:22:18.349Z,77.00
2023-04-13T01:25:07.313Z,76.80
2023-04-13T01:27:59.084Z,76.80
2023-04-13T01:30:32.584Z,76.80
2023-04-13T01:33:12.325Z,76.90
2023-04-13T01:35:48.809Z,76.90
2023-04-13T01:38:28.464Z,76.90
2023-04-13T01:41:17.395Z,76.90
2023-04-13T01:43:51.729Z,76.90
2023-04-13T01:46:33.560Z,76.90
2023-04-13T01:49:30.445Z,76.80
2023-04-13T01:52:35.227Z,76.70
2023-04-13T01:55:13.411Z,76.60
2023-04-13T01:57:53.188Z,76.80
2023-04-13T02:00:40.790Z,76.90
2023-04-13T02:03:30.062Z,76.80
2023-04-13T02:06:00.697Z,76.80
2023-04-13T02:08:43.898Z,76.70
2023-04-13T02:11:21.829Z,76.80
2023-04-13T02:14:00.372Z,76.70
2023-04-13T02:16:46.708Z,76.60
2023-04-13T02:19:23.769Z,76.70
2023-04-13T02:22:00.803Z,76.80
2023-04-13T02:24:40.464Z,76.80
2023-04-13T02:27:12.860Z,76.70
2023-04-13T02:29:42.912Z,76.70
2023-04-13T02:32:23.464Z,76.70
2023-04-13T02:34:54.288Z,76.60
2023-04-13T02:37:24.756Z,76.60
2023-04-13T02:39:53.364Z,76.60
2023-04-13T02:42:35.438Z,76.40
2023-04-13T02:45:14.851Z,76.30
2023-04-13T02:47:52.462Z,76.30
2023-04-13T02:50:21.777Z,76.30
2023-04-13T02:53:11.920Z,76.30
2023-04-13T02:55:47.824Z,76.30
2023-04-13T02:58:22.480Z,76.30
2023-04-13T03:01:01.853Z,76.30
2023-04-13T03:03:48.733Z,76.20
2023-04-13T03:06:29.147Z,76.00
2023-04-13T03:09:11.645Z,76.10
2023-04-13T03:12:03.732Z,76.00
2023-04-13T03:14:36.765Z,76.00
2023-04-13T03:17:16.704Z,76.00
2023-04-13T03:19:54.236Z,75.90
2023-04-13T03:22:33.354Z,75.80
2023-04-13T03:25:10.814Z,75.80
2023-04-13T03:27:42.963Z,75.70
2023-04-13T03:30:20.922Z,75.60
2023-04-13T03:33:07.246Z,75.60
2023-04-13T03:35:51.188Z,75.50
2023-04-13T03:38:38.419Z,75.50
2023-04-13T03:41:11.092Z,75.40
2023-04-13T03:43:50.557Z,75.30
2023-04-13T03:46:25.146Z,75.20
2023-04-13T03:49:01.474Z,75.30
2023-04-13T03:51:43.882Z,75.30
2023-04-13T03:54:19.031Z,75.30
2023-04-13T03:56:55.898Z,75.20
2023-04-13T03:59:37.349Z,75.20
2023-04-13T04:02:16.086Z,75.20
2023-04-13T04:04:55.803Z,75.20
2023-04-13T04:07:40.696Z,75.20
2023-04-13T04:10:25.708Z,75.20
2023-04-13T04:13:00.687Z,75.00
2023-04-13T04:15:36.943Z,75.00
2023-04-13T04:18:21.617Z,74.90
2023-04-13T04:21:02.278Z,74.80
2023-04-13T04:23:44.530Z,74.80
2023-04-13T04:26:17.424Z,74.80
2023-04-13T04:29:02.931Z,74.80
2023-04-13T04:31:46.015Z,74.70
2023-04-13T04:34:24.418Z,74.60
2023-04-13T04:37:03.225Z,74.70
2023-04-13T04:39:55.525Z,74.70
2023-04-13T04:42:31.131Z,74.60
2023-04-13T04:45:05.936Z,74.50
2023-04-13T04:47:46.388Z,74.50
2023-04-13T04:50:23.281Z,74.40
2023-04-13T04:53:05.048Z,74.40
2023-04-13T04:55:46.706Z,74.50
2023-04-13T04:58:43.106Z,74.40
2023-04-13T05:01:25.366Z,74.40
2023-04-13T05:04:05.948Z,74.30
2023-04-13T05:06:41.805Z,74.40
2023-04-13T05:09:20.745Z,75.30
2023-04-13T05:12:12.284Z,76.10
2023-04-13T05:14:51.419Z,75.10
2023-04-13T05:17:32.922Z,73.70
2023-04-13T05:20:07.402Z,72.90
2023-04-13T05:22:59.656Z,72.60
2023-04-13T05:25:43.270Z,72.40
2023-04-13T05:28:37.565Z,72.40
2023-04-13T05:31:13.527Z,72.60
2023-04-13T05:33:55.733Z,72.80
2023-04-13T05:36:34.653Z,73.00
2023-04-13T05:39:19.922Z,73.10
2023-04-13T05:42:01.526Z,73.20
2023-04-13T05:44:50.357Z,73.30
2023-04-13T05:47:28.318Z,73.20
2023-04-13T05:50:09.972Z,73.20
2023-04-13T05:52:47.119Z,73.20
2023-04-13T05:55:27.006Z,73.30
2023-04-13T05:58:07.314Z,73.40
2023-04-13T06:00:45.613Z,73.40
2023-04-13T06:03:32.251Z,73.40
2023-04-13T06:06:12.317Z,73.30
2023-04-13T06:08:42.638Z,73.30
2023-04-13T06:11:15.976Z,73.40
2023-04-13T06:14:00.228Z,73.20
2023-04-13T06:16:38.734Z,73.30
2023-04-13T06:19:18.045Z,73.20
2023-04-13T06:21:59.411Z,73.20
2023-04-13T06:24:40.981Z,73.20
2023-04-13T06:27:16.299Z,73.20
2023-04-13T06:29:51.445Z,73.20
2023-04-13T06:32:29.632Z,73.20
2023-04-13T06:35:06.359Z,73.10
2023-04-13T06:37:55.679Z,73.10
2023-04-13T06:40:36.881Z,73.10
2023-04-13T06:43:26.465Z,73.20
2023-04-13T06:46:19.584Z,73.20
2023-04-13T06:49:07.025Z,73.10
2023-04-13T06:51:42.809Z,73.10
2023-04-13T06:54:16.678Z,73.20
2023-04-13T06:56:55.800Z,73.30
2023-04-13T06:59:41.407Z,73.30
2023-04-13T07:02:19.140Z,73.20
2023-04-13T07:05:07.661Z,73.00
2023-04-13T07:07:43.602Z,72.90
2023-04-13T07:10:31.211Z,73.00
2023-04-13T07:13:12.025Z,72.90
2023-04-13T07:15:52.016Z,73.00
2023-04-13T07:18:28.942Z,72.90
2023-04-13T07:21:03.192Z,72.70
2023-04-13T07:23:47.833Z,72.80
2023-04-13T07:26:25.714Z,72.80
2023-04-13T07:28:54.620Z,72.80
2023-04-13T07:31:39.893Z,72.80
2023-04-13T07:34:20.865Z,72.80
2023-04-13T07:37:01.057Z,72.70
2023-04-13T07:39:40.700Z,72.70
2023-04-13T07:42:17.436Z,72.70
2023-04-13T07:44:55.901Z,72.80
2023-04-13T07:47:30.090Z,72.80
2023-04-13T07:50:07.241Z,72.70
2023-04-13T07:52:55.418Z,72.50
2023-04-13T07:55:31.915Z,72.50
2023-04-13T07:58:24.053Z,72.20
2023-04-13T08:01:01.870Z,72.10
2023-04-13T08:03:34.651Z,72.20
2023-04-13T08:06:26.285Z,72.10
2023-04-13T08:09:11.537Z,72.00
2023-04-13T08:11:48.737Z,71.80
2023-04-13T08:14:24.784Z,71.80
2023-04-13T08:17:08.463Z,71.80
2023-04-13T08:19:43.166Z,71.70
2023-04-13T08:22:19.349Z,71.70
2023-04-13T08:25:04.739Z,71.60
2023-04-13T08:27:43.543Z,71.50
2023-04-13T08:30:17.493Z,71.40
2023-04-13T08:33:07.770Z,71.40
2023-04-13T08:35:42.936Z,71.40
2023-04-13T08:38:21.269Z,71.40
2023-04-13T08:41:00.598Z,71.30
2023-04-13T08:43:46.995Z,71.30
2023-04-13T08:46:33.400Z,71.50
2023-04-13T08:49:10.087Z,71.60
2023-04-13T08:52:03.963Z,71.50
2023-04-13T08:54:38.100Z,71.20
2023-04-13T08:57:17.676Z,71.20
2023-04-13T08:59:50.821Z,71.10
2023-04-13T09:02:28.250Z,71.00
2023-04-13T09:05:16.917Z,71.10
2023-04-13T09:08:14.500Z,71.10
2023-04-13T09:11:16.593Z,71.20
2023-04-13T09:14:01.783Z,71.20
2023-04-13T09:16:45.224Z,71.20
2023-04-13T09:19:40.586Z,71.20
2023-04-13T09:22:17.976Z,71.20
2023-04-13T09:24:51.725Z,71.30
2023-04-13T09:27:28.696Z,71.30
2023-04-13T09:30:14.994Z,71.40
2023-04-13T09:32:52.904Z,71.40
2023-04-13T09:35:35.110Z,71.40
2023-04-13T09:38:11.193Z,71.40
2023-04-13T09:40:57.251Z,71.50
2023-04-13T09:43:43.806Z,71.40
2023-04-13T09:46:30.377Z,71.50
2023-04-13T09:49:03.618Z,71.50
2023-04-13T09:51:42.618Z,71.40
2023-04-13T09:54:23.097Z,71.40
2023-04-13T09:57:00.460Z,71.50
2023-04-13T09:59:33.765Z,71.60
2023-04-13T10:02:14.553Z,71.70
2023-04-13T10:04:46.022Z,71.70
2023-04-13T10:07:20.366Z,71.80
2023-04-13T10:09:57.723Z,71.90
2023-04-13T10:12:37.902Z,71.80
2023-04-13T10:15:25.333Z,71.80
2023-04-13T10:18:16.468Z,71.80
2023-04-13T10:20:49.168Z,71.70
2023-04-13T10:23:29.300Z,71.80
2023-04-13T10:26:03.627Z,71.90
2023-04-13T10:28:43.625Z,72.00
2023-04-13T10:31:24.200Z,72.00
2023-04-13T10:33:55.326Z,72.00
2023-04-13T10:36:41.480Z,72.20
2023-04-13T10:39:11.953Z,72.10
2023-04-13T10:41:46.710Z,72.10
2023-04-13T10:44:23.469Z,72.10
2023-04-13T10:46:57.054Z,72.00
2023-04-13T10:49:49.963Z,72.00
2023-04-13T10:52:29.049Z,72.00
2023-04-13T10:55:05.420Z,72.10
2023-04-13T10:57:47.655Z,72.10
2023-04-13T11:00:31.849Z,72.00
2023-04-13T11:03:18.130Z,71.90
2023-04-13T11:05:59.864Z,71.90
2023-04-13T11:08:39.013Z,71.90
2023-04-13T11:11:15.135Z,71.80
2023-04-13T11:13:56.303Z,72.00
2023-04-13T11:16:27.135Z,72.10
2023-04-13T11:19:05.384Z,72.00
2023-04-13T11:21:40.601Z,71.90
2023-04-13T11:24:10.644Z,71.60
2023-04-13T11:26:43.371Z,71.60
2023-04-13T11:29:26.234Z,71.60
2023-04-13T11:32:00.779Z,71.30
2023-04-13T11:34:40.569Z,71.30
2023-04-13T11:37:11.693Z,71.40
2023-04-13T11:39:49.136Z,71.20
2023-04-13T11:42:22.988Z,71.30
2023-04-13T11:44:56.911Z,71.20
2023-04-13T11:47:30.280Z,71.00
2023-04-13T11:50:01.926Z,70.90
2023-04-13T11:52:37.949Z,70.70
2023-04-13T11:55:22.285Z,70.60
2023-04-13T11:57:55.752Z,70.60
2023-04-13T12:00:28.173Z,70.40
2023-04-13T12:05:33.050Z,70.60
2023-04-13T12:08:27.012Z,70.90
2023-04-13T12:14:06.613Z,70.90
2023-04-13T12:19:30.390Z,70.60
2023-04-13T12:22:12.024Z,70.30
2023-04-13T12:24:49.340Z,70.40
2023-04-13T12:27:25.418Z,70.50
2023-04-13T12:30:04.746Z,70.70
2023-04-13T12:32:38.273Z,70.70
2023-04-13T12:35:22.050Z,70.30
2023-04-13T12:37:59.967Z,70.20
2023-04-13T12:40:38.487Z,70.20
2023-04-13T12:43:15.584Z,69.90
2023-04-13T12:45:48.017Z,69.70
2023-04-13T12:48:27.242Z,69.70
2023-04-13T12:50:58.498Z,69.60
2023-04-13T12:53:27.880Z,69.70
2023-04-13T12:56:03.315Z,69.70
2023-04-13T12:58:38.789Z,69.80
2023-04-13T13:01:23.435Z,69.70
2023-04-13T13:03:59.442Z,69.70
2023-04-13T13:06:33.276Z,69.70
2023-04-13T13:09:08.733Z,69.70
2023-04-13T13:11:44.013Z,69.60
2023-04-13T13:14:25.961Z,69.40
2023-04-13T13:17:00.134Z,69.50
2023-04-13T13:19:30.016Z,69.60
2023-04-13T13:22:08.142Z,69.40
2023-04-13T13:24:41.938Z,69.40
2023-04-13T13:30:04.913Z,69.30
2023-04-13T13:32:38.353Z,69.30
2023-04-13T13:35:10.562Z,69.20
2023-04-13T13:37:44.196Z,69.20
2023-04-13T13:40:25.194Z,69.10
2023-04-13T13:43:03.705Z,69.10
2023-04-13T13:45:40.187Z,69.10
2023-04-13T13:48:09.084Z,69.10
2023-04-13T13:50:59.605Z,69.10
2023-04-13T13:53:32.394Z,69.00
2023-04-13T13:56:15.348Z,68.80
2023-04-13T13:58:47.371Z,68.30
2023-04-13T14:01:28.453Z,68.70
2023-04-13T14:04:02.749Z,68.50
2023-04-13T14:06:38.299Z,68.40
2023-04-13T14:09:22.840Z,68.30
2023-04-13T14:11:53.662Z,68.50
2023-04-13T14:14:33.067Z,68.60
2023-04-13T14:17:06.336Z,68.50
2023-04-13T14:19:42.707Z,68.30
2023-04-13T14:22:15.773Z,68.20
2023-04-13T14:24:46.553Z,67.90
2023-04-13T14:27:21.738Z,67.70
2023-04-13T14:30:04.111Z,67.70
2023-04-13T14:32:41.794Z,67.70
2023-04-13T14:35:20.616Z,67.70
2023-04-13T14:38:00.590Z,67.70
2023-04-13T14:40:34.810Z,67.70
2023-04-13T14:43:15.099Z,67.60
2023-04-13T14:45:52.361Z,67.50
2023-04-13T14:48:27.228Z,67.30
2023-04-13T14:51:01.472Z,67.30
2023-04-13T14:53:39.145Z,67.30
2023-04-13T14:56:18.491Z,67.30
2023-04-13T14:58:49.075Z,67.20
2023-04-13T15:01:30.452Z,67.30
2023-04-13T15:04:10.515Z,67.20
2023-04-13T15:06:51.927Z,67.20
2023-04-13T15:09:32.064Z,67.20
2023-04-13T15:12:11.710Z,67.10
2023-04-13T15:14:49.055Z,67.10
2023-04-13T15:17:26.908Z,66.80
2023-04-13T15:19:59.804Z,67.00
2023-04-13T15:22:38.695Z,67.00
2023-04-13T15:25:18.646Z,67.20
2023-04-13T15:27:55.741Z,67.40
2023-04-13T15:30:28.334Z,67.60
2023-04-13T15:33:08.593Z,67.90
2023-04-13T15:35:43.120Z,68.20
2023-04-13T15:38:22.800Z,68.30
2023-04-13T15:41:02.814Z,68.30
2023-04-13T15:43:36.441Z,68.30
2023-04-13T15:46:12.397Z,68.30
2023-04-13T15:48:54.088Z,68.10
2023-04-13T15:51:26.625Z,68.30
2023-04-13T15:53:57.933Z,68.10
2023-04-13T15:56:28.526Z,68.10
2023-04-13T15:59:00.633Z,68.30
2023-04-13T16:01:44.693Z,68.30
2023-04-13T16:04:21.335Z,68.50
2023-04-13T16:09:35.916Z,68.50
2023-04-13T16:12:16.151Z,68.60
2023-04-13T16:14:50.523Z,68.80
2023-04-13T16:17:27.209Z,68.90
2023-04-13T16:20:09.955Z,69.00
2023-04-13T16:22:44.179Z,69.10
2023-04-13T16:25:18.854Z,69.10
2023-04-13T16:28:04.954Z,69.10
2023-04-13T16:30:40.505Z,69.30
2023-04-13T16:33:11.062Z,69.40
2023-04-13T16:35:59.161Z,69.50
2023-04-13T16:38:34.245Z,69.60
2023-04-13T16:41:07.737Z,69.70
2023-04-13T16:43:42.273Z,69.80
2023-04-13T16:46:20.380Z,69.80
2023-04-13T16:48:53.958Z,70.00
2023-04-13T16:51:29.883Z,70.10
2023-04-13T16:54:03.763Z,70.20
2023-04-13T16:56:37.148Z,70.20
2023-04-13T16:59:14.137Z,70.40
2023-04-13T17:01:53.082Z,70.50
2023-04-13T17:04:30.946Z,70.60
2023-04-13T17:07:08.110Z,70.60
2023-04-13T17:09:38.997Z,70.70
2023-04-13T17:12:16.987Z,70.70
2023-04-13T17:14:57.878Z,71.00
2023-04-13T17:17:37.952Z,71.20
2023-04-13T17:20:14.156Z,71.40
2023-04-13T17:22:57.417Z,71.50
2023-04-13T17:25:32.109Z,71.70
2023-04-13T17:28:04.571Z,71.70
2023-04-13T17:30:39.200Z,71.80
2023-04-13T17:33:12.804Z,71.90
2023-04-13T17:35:48.671Z,72.00
2023-04-13T17:38:30.133Z,72.20
2023-04-13T17:41:00.971Z,72.30
2023-04-13T17:43:38.151Z,72.50
2023-04-13T17:46:10.732Z,72.50
2023-04-13T17:48:40.467Z,72.50
2023-04-13T17:51:16.423Z,72.50
2023-04-13T17:53:54.510Z,72.50
2023-04-13T17:56:29.272Z,72.70
2023-04-13T17:59:02.614Z,72.70
2023-04-13T18:01:43.949Z,72.70
2023-04-13T18:04:17.739Z,72.70
2023-04-13T18:06:55.753Z,72.80
2023-04-13T18:09:33.924Z,72.90
2023-04-13T18:12:09.134Z,73.10
2023-04-13T18:14:44.785Z,73.30
2023-04-13T18:17:18.312Z,73.40
2023-04-13T18:19:52.859Z,73.60
2023-04-13T18:22:26.954Z,73.60
2023-04-13T18:25:16.378Z,73.70
2023-04-13T18:27:56.088Z,73.80
2023-04-13T18:30:28.736Z,73.80
2023-04-13T18:33:06.280Z,73.70
2023-04-13T18:35:45.941Z,73.70
2023-04-13T18:38:23.459Z,73.70
2023-04-13T18:41:01.149Z,73.80
2023-04-13T18:43:41.435Z,73.90
2023-04-13T18:46:13.260Z,74.00
2023-04-13T18:48:44.643Z,74.00
2023-04-13T18:51:25.778Z,74.00
2023-04-13T18:53:59.424Z,74.00
2023-04-13T18:56:31.294Z,74.10
2023-04-13T18:59:10.837Z,74.10
2023-04-13T19:01:46.072Z,74.20
2023-04-13T19:04:19.622Z,74.20
2023-04-13T19:06:53.135Z,74.20
2023-04-13T19:09:26.479Z,74.30
2023-04-13T19:12:05.319Z,74.30
2023-04-13T19:14:38.987Z,74.30
2023-04-13T19:17:10.480Z,74.40
2023-04-13T19:19:41.555Z,74.60
2023-04-13T19:22:12.615Z,74.60
2023-04-13T19:24:51.659Z,74.50
2023-04-13T19:27:27.092Z,74.50
2023-04-13T19:30:03.729Z,74.60
2023-04-13T19:32:39.105Z,74.50
2023-04-13T19:35:11.066Z,74.60
2023-04-13T19:37:49.768Z,74.50
2023-04-13T19:40:29.650Z,74.50
2023-04-13T19:43:07.684Z,74.50
2023-04-13T19:45:41.645Z,74.50
2023-04-13T19:48:18.302Z,74.50
2023-04-13T19:50:51.812Z,74.60
2023-04-13T19:53:32.922Z,74.50
2023-04-13T19:56:01.479Z,74.50
2023-04-13T19:58:38.278Z,74.50
2023-04-13T20:01:11.414Z,74.50
2023-04-13T20:03:45.474Z,74.60
2023-04-13T20:06:19.853Z,74.50
2023-04-13T20:08:51.482Z,74.40
2023-04-13T20:11:24.816Z,74.50
2023-04-13T20:14:14.144Z,74.50
2023-04-13T20:16:53.869Z,74.60
2023-04-13T20:19:29.713Z,74.70
2023-04-13T20:22:02.163Z,74.80
2023-04-13T20:24:44.653Z,74.90
2023-04-13T20:27:17.252Z,74.80
2023-04-13T20:29:58.057Z,74.70
2023-04-13T20:32:29.292Z,74.70
2023-04-13T20:35:06.047Z,74.90
2023-04-13T20:37:40.368Z,74.90
2023-04-13T20:40:27.412Z,74.90
2023-04-13T20:43:06.286Z,75.10
2023-04-13T20:45:49.504Z,75.10
2023-04-13T20:51:01.687Z,75.10
2023-04-13T20:53:34.542Z,75.00
2023-04-13T20:56:14.629Z,75.00
2023-04-13T20:58:43.531Z,75.20
2023-04-13T21:01:23.967Z,75.20
2023-04-13T21:04:01.439Z,75.30
2023-04-13T21:06:37.416Z,75.30
2023-04-13T21:09:11.973Z,75.20
2023-04-13T21:11:47.666Z,75.30
2023-04-13T21:14:27.243Z,75.30
2023-04-13T21:17:14.251Z,75.30
2023-04-13T21:19:49.150Z,75.20
2023-04-13T21:22:25.427Z,75.20
2023-04-13T21:24:58.560Z,75.20
2023-04-13T21:27:35.273Z,75.20
2023-04-13T21:30:05.812Z,75.30
2023-04-13T21:32:41.388Z,75.30
2023-04-13T21:35:18.246Z,75.30
2023-04-13T21:37:54.127Z,75.30
2023-04-13T21:40:34.588Z,75.10
2023-04-13T21:43:10.896Z,75.30
2023-04-13T21:45:42.407Z,75.30
2023-04-13T21:48:31.134Z,75.50
2023-04-13T21:51:04.234Z,75.70
2023-04-13T21:53:44.158Z,75.70
2023-04-13T21:56:22.272Z,75.60
2023-04-13T21:58:50.617Z,75.50
2023-04-13T22:01:49.788Z,75.60
2023-04-13T22:04:37.127Z,75.40
2023-04-13T22:07:11.229Z,75.40
2023-04-13T22:09:42.728Z,75.50
2023-04-13T22:12:18.440Z,75.50
2023-04-13T22:14:59.993Z,75.50
2023-04-13T22:17:32.810Z,75.50
2023-04-13T22:20:14.458Z,75.50
2023-04-13T22:22:48.235Z,75.40
2023-04-13T22:25:32.362Z,75.30
2023-04-13T22:28:14.728Z,75.10
2023-04-13T22:30:54.880Z,75.10
2023-04-13T22:33:32.038Z,75.30
2023-04-13T22:36:05.889Z,75.40
2023-04-13T22:38:40.315Z,75.50
2023-04-13T22:41:19.802Z,75.40
2023-04-13T22:43:54.045Z,75.40
2023-04-13T22:46:25.632Z,75.40
2023-04-13T22:48:58.047Z,75.40
2023-04-13T22:51:46.202Z,75.40
2023-04-13T22:54:20.740Z,75.40
2023-04-13T22:56:56.210Z,75.20
2023-04-13T22:59:35.470Z,75.20
2023-04-13T23:02:13.483Z,75.10
2023-04-13T23:04:58.368Z,75.10
2023-04-13T23:07:37.368Z,75.30
2023-04-13T23:10:17.014Z,75.40
2023-04-13T23:12:57.198Z,75.40
2023-04-13T23:15:31.896Z,75.30
2023-04-13T23:18:05.234Z,75.20
2023-04-13T23:20:47.853Z,75.20
2023-04-13T23:23:26.733Z,75.20
2023-04-13T23:26:01.331Z,75.30
2023-04-13T23:28:41.711Z,75.10
2023-04-13T23:31:18.234Z,75.10
2023-04-13T23:33:54.880Z,75.10
2023-04-13T23:36:27.308Z,75.00
2023-04-13T23:39:13.747Z,74.90
2023-04-13T23:41:50.244Z,74.90
2023-04-13T23:44:33.493Z,75.00
2023-04-13T23:47:04.240Z,75.10
2023-04-13T23:49:35.464Z,75.10
2023-04-13T23:52:14.193Z,75.20
2023-04-13T23:55:01.257Z,75.30
2023-04-13T23:57:34.886Z,75.40
